La Porsche — VY9305 — position and weather

sailwx.info

Track history (hours):
 
Tides and Currents Weather Stations Pressure Air Temp Water Temp Dewpoint Dewpoint Depression Visibility Wind Speed Wind Dir Waves Ship Positions

La Porsche

Last reported at 2015-Apr-23 06:06 UTC. Time now 2015-Apr-28 16:02 UTC.
Position N 51°30' W 127°51'.

Length 22 m; draft 3 m.

Type: Fishing. MMSI: 316001649.

Date/timePositionNaut miles runAvg speedWind from/ knotsBaromVisibWave heightAir tempDewpointWater temp
2015-Apr-23 06:06N 51°30' W 127°51'15 7.9
2015-Apr-23 04:16N 51°16' W 127°53'5 7.6
2015-Apr-23 03:33N 51°11' W 127°51'8 8.5
2015-Apr-23 02:33N 51°02' W 127°47'8 8.3
2015-Apr-23 01:33N 50°55' W 127°41'8 8.2
2015-Apr-23 00:33N 50°48' W 127°34'6 1.9
2015-Apr-22 21:22N 50°43' W 127°29'5 5.7
2015-Apr-22 20:30N 50°45' W 127°22'8 8.2
2015-Apr-22 19:31N 50°39' W 127°13'19 9.0
2015-Apr-22 17:25N 50°33' W 126°45'8 8.9
2015-Apr-22 16:32N 50°30' W 126°33'10 8.6
2015-Apr-22 15:24N 50°29' W 126°18'92 7.0
2015-Apr-22 02:17N 49°35' W 124°22'6 8.2
2015-Apr-22 01:31N 49°31' W 124°14'9 8.1
2015-Apr-22 00:23N 49°28' W 124°01'8 8.3
2015-Apr-21 23:28N 49°25' W 123°50'8 8.2
2015-Apr-21 22:33N 49°23' W 123°39'6 4.4
2015-Apr-21 21:17N 49°24' W 123°30'0 0.0
2015-Apr-21 19:17N 49°24' W 123°30'0 0.0
2015-Apr-21 18:29N 49°24' W 123°30'0 0.0
2015-Apr-21 17:29N 49°24' W 123°30'0 0.0
2015-Apr-21 16:29N 49°24' W 123°30'0 0.0
2015-Apr-21 15:05N 49°24' W 123°30'0 0.0
2015-Apr-21 14:29N 49°24' W 123°30'0 0.0
2015-Apr-21 13:29N 49°24' W 123°30'0 0.0
2015-Apr-21 12:32N 49°24' W 123°30'0 0.0
2015-Apr-21 11:32N 49°24' W 123°30'0 0.0
2015-Apr-21 10:32N 49°24' W 123°30'0 0.0
2015-Apr-21 09:32N 49°24' W 123°30'0 0.0
2015-Apr-21 08:32N 49°24' W 123°30'0 0.0
2015-Apr-21 07:32N 49°24' W 123°30'0 0.0
2015-Apr-21 06:29N 49°24' W 123°30'0 0.0
2015-Apr-21 05:29N 49°24' W 123°30'0 0.0
2015-Apr-21 04:32N 49°24' W 123°30'0 0.0
2015-Apr-21 03:29N 49°24' W 123°30'5 5.8
2015-Apr-21 02:33N 49°19' W 123°30'9 8.9
2015-Apr-21 01:33N 49°11' W 123°24'7 6.6
2015-Apr-21 00:33N 49°08' W 123°15'6 6.0
2015-Apr-20 23:33N 49°05' W 123°06'0 0.0
2015-Apr-20 22:33N 49°05' W 123°06'0 0.0
2015-Apr-20 21:33N 49°05' W 123°06'0 0.0
2015-Apr-20 20:33N 49°05' W 123°06'0 0.0
2015-Apr-20 19:33N 49°05' W 123°06'0 0.0
2015-Apr-20 18:30N 49°05' W 123°06'0 0.0
2015-Apr-20 17:33N 49°05' W 123°06'2 2.1
2015-Apr-20 16:34N 49°06' W 123°09'7 7.5
2015-Apr-20 15:33N 49°09' W 122°59'3 2.8
2015-Apr-20 14:31N 49°11' W 122°55'0 0.0
2015-Apr-20 13:31N 49°11' W 122°55'0 0.0
2015-Apr-20 12:31N 49°11' W 122°55'0 0.0
2015-Apr-20 11:31N 49°11' W 122°55'0 0.0
2015-Apr-20 10:31N 49°11' W 122°55'0 0.0
2015-Apr-20 09:31N 49°11' W 122°55'0 0.0
2015-Apr-20 08:31N 49°11' W 122°55'0 0.0
2015-Apr-20 07:31N 49°11' W 122°55'0 0.0
2015-Apr-20 06:31N 49°11' W 122°55'0 0.0
2015-Apr-20 05:31N 49°11' W 122°55'0 0.0
2015-Apr-20 04:31N 49°11' W 122°55'0 0.0
2015-Apr-20 03:31N 49°11' W 122°55'0 0.0
2015-Apr-20 02:31N 49°11' W 122°55'0 0.0
2015-Apr-20 01:31N 49°11' W 122°55'0 0.0
2015-Apr-20 00:31N 49°11' W 122°55'0 0.0
2015-Apr-19 23:31N 49°11' W 122°55'0 0.0
2015-Apr-19 22:31N 49°11' W 122°55'0 0.0
2015-Apr-19 21:31N 49°11' W 122°55'0 0.0
2015-Apr-19 20:31N 49°11' W 122°55'0 0.0
2015-Apr-19 19:31N 49°11' W 122°55'0 0.0
2015-Apr-19 18:31N 49°11' W 122°55'0 0.0
2015-Apr-19 17:31N 49°11' W 122°55'0 0.0
2015-Apr-19 16:31N 49°11' W 122°55'0 0.0
2015-Apr-19 15:31N 49°11' W 122°55'0 0.0
2015-Apr-19 14:31N 49°11' W 122°55'0 0.0
2015-Apr-19 13:31N 49°11' W 122°55'0 0.0
2015-Apr-19 12:31N 49°11' W 122°55'0 0.0
2015-Apr-19 11:31N 49°11' W 122°55'0 0.0
2015-Apr-19 10:31N 49°11' W 122°55'0 0.0
2015-Apr-19 09:31N 49°11' W 122°55'0 0.0
2015-Apr-19 08:31N 49°11' W 122°55'0 0.0
2015-Apr-19 07:31N 49°11' W 122°55'0 0.0
2015-Apr-19 06:31N 49°11' W 122°55'0 0.0
2015-Apr-19 05:31N 49°11' W 122°55'0 0.0
2015-Apr-19 04:28N 49°11' W 122°55'0 0.0
2015-Apr-19 03:31N 49°11' W 122°55'0 0.0
2015-Apr-19 02:31N 49°11' W 122°55'0 0.0
2015-Apr-19 01:32N 49°11' W 122°55'0 0.0
2015-Apr-19 00:31N 49°11' W 122°55'0 0.0
2015-Apr-18 23:31N 49°11' W 122°55'0 0.0
2015-Apr-18 22:31N 49°11' W 122°55'0 0.0
2015-Apr-18 21:31N 49°11' W 122°55'0 0.0
2015-Apr-18 20:31N 49°11' W 122°55'0 0.0
2015-Apr-18 19:31N 49°11' W 122°55'0 0.0
2015-Apr-18 18:31N 49°11' W 122°55'0 0.0
2015-Apr-18 17:31N 49°11' W 122°55'0 0.0
2015-Apr-18 16:31N 49°11' W 122°55'0 0.0
2015-Apr-18 15:31N 49°11' W 122°55'0 0.0
2015-Apr-18 14:31N 49°11' W 122°55'0 0.0
2015-Apr-18 13:31N 49°11' W 122°55'0 0.0
2015-Apr-18 12:31N 49°11' W 122°55'0 0.0
2015-Apr-18 11:31N 49°11' W 122°55'0 0.0
2015-Apr-18 10:31N 49°11' W 122°55'0 0.0
2015-Apr-18 09:31N 49°11' W 122°55'0 0.0
2015-Apr-18 08:31N 49°11' W 122°55'0 0.0
2015-Apr-18 07:31N 49°11' W 122°55'0 0.0
2015-Apr-18 06:31N 49°11' W 122°55'0 0.0
2015-Apr-18 05:31N 49°11' W 122°55'0 0.0
2015-Apr-18 04:31N 49°11' W 122°55'0 0.0
2015-Apr-18 03:31N 49°11' W 122°55'0 0.0
2015-Apr-18 02:31N 49°11' W 122°55'0 0.0
2015-Apr-18 01:31N 49°11' W 122°55'0 0.0
2015-Apr-18 00:31N 49°11' W 122°55'0 0.0
2015-Apr-17 23:31N 49°11' W 122°55'0 0.0
2015-Apr-17 22:31N 49°11' W 122°55'0 0.0
2015-Apr-17 21:31N 49°11' W 122°55'0 0.0
2015-Apr-17 20:31N 49°11' W 122°55'0 0.0
2015-Apr-17 19:31N 49°11' W 122°55'0 0.0
2015-Apr-17 18:33N 49°11' W 122°55'0 0.0
2015-Apr-17 17:28N 49°11' W 122°55'0 0.0
2015-Apr-17 16:31N 49°11' W 122°55'0 0.0
2015-Apr-16 18:06N 49°11' W 122°55'0 0.0
2015-Apr-16 17:33N 49°11' W 122°55'0 0.0
2015-Apr-16 16:33N 49°11' W 122°55'0 0.0
2015-Apr-16 15:33N 49°11' W 122°55'0 0.0
2015-Apr-16 14:33N 49°11' W 122°55'0 0.0
2015-Apr-16 13:33N 49°11' W 122°55'0 0.0
2015-Apr-16 12:33N 49°11' W 122°55'0 0.0
2015-Apr-16 11:33N 49°11' W 122°55'0 0.0
2015-Apr-16 10:33N 49°11' W 122°55'0 0.0
2015-Apr-16 09:33N 49°11' W 122°55'0 0.0
2015-Apr-16 08:33N 49°11' W 122°55'0 0.0
2015-Apr-16 07:30N 49°11' W 122°55'0 0.0
2015-Apr-16 06:33N 49°11' W 122°55'0 0.0
2015-Apr-16 05:33N 49°11' W 122°55'0 0.0
2015-Apr-16 04:33N 49°11' W 122°55'0 0.0
2015-Apr-16 03:33N 49°11' W 122°55'0 0.0
2015-Apr-16 02:33N 49°11' W 122°55'0 0.0
2015-Apr-16 01:33N 49°11' W 122°55'0 0.0
2015-Apr-16 00:33N 49°11' W 122°55'0 0.0
2015-Apr-15 23:33N 49°11' W 122°55'0 0.0
2015-Apr-15 22:33N 49°11' W 122°55'0 0.0
2015-Apr-15 21:33N 49°11' W 122°55'0 0.0
2015-Apr-15 20:33N 49°11' W 122°55'0 0.0
2015-Apr-15 19:33N 49°11' W 122°55'0 0.0
2015-Apr-15 18:30N 49°11' W 122°55'0 0.0
2015-Apr-15 17:33N 49°11' W 122°55'0 0.0
2015-Apr-15 16:33N 49°11' W 122°55'0 0.0
2015-Apr-15 15:33N 49°11' W 122°55'0 0.0
2015-Apr-15 14:33N 49°11' W 122°55'0 0.0
2015-Apr-15 13:33N 49°11' W 122°55'0 0.0
2015-Apr-15 12:33N 49°11' W 122°55'0 0.0
2015-Apr-15 11:33N 49°11' W 122°55'0 0.0
2015-Apr-15 10:33N 49°11' W 122°55'0 0.0
2015-Apr-15 09:33N 49°11' W 122°55'0 0.0
2015-Apr-15 08:33N 49°11' W 122°55'0 0.0
2015-Apr-15 07:33N 49°11' W 122°55'0 0.0
2015-Apr-15 06:33N 49°11' W 122°55'0 0.0
2015-Apr-15 05:33N 49°11' W 122°55'0 0.0
2015-Apr-15 04:33N 49°11' W 122°55'0 0.0
2015-Apr-15 03:33N 49°11' W 122°55'0 0.0
2015-Apr-15 02:27N 49°11' W 122°55'0 0.0
2015-Apr-15 01:33N 49°11' W 122°55'0 0.0
2015-Apr-15 00:30N 49°11' W 122°55'0 0.0
2015-Apr-14 23:33N 49°11' W 122°55'0 0.0
2015-Apr-14 22:33N 49°11' W 122°55'0 0.0
2015-Apr-14 21:33N 49°11' W 122°55'0 0.0
2015-Apr-14 20:33N 49°11' W 122°55'0 0.0
2015-Apr-14 19:33N 49°11' W 122°55'0 0.0
2015-Apr-14 18:33N 49°11' W 122°55'0 0.0
2015-Apr-14 17:33N 49°11' W 122°55'0 0.0
2015-Apr-14 16:33N 49°11' W 122°55'0 0.0
2015-Apr-14 15:33N 49°11' W 122°55'0 0.0
2015-Apr-14 14:33N 49°11' W 122°55'0 0.0
2015-Apr-14 13:33N 49°11' W 122°55'0 0.0
2015-Apr-14 12:33N 49°11' W 122°55'0 0.0
2015-Apr-14 11:33N 49°11' W 122°55'0 0.0
2015-Apr-14 10:33N 49°11' W 122°55'0 0.0
2015-Apr-14 09:33N 49°11' W 122°55'0 0.0
2015-Apr-14 08:33N 49°11' W 122°55'0 0.0
2015-Apr-14 07:33N 49°11' W 122°55'0 0.0
2015-Apr-14 06:33N 49°11' W 122°55'0 0.0
2015-Apr-14 05:33N 49°11' W 122°55'0 0.0
2015-Apr-14 04:33N 49°11' W 122°55'0 0.0
2015-Apr-14 03:30N 49°11' W 122°55'0 0.0
2015-Apr-14 02:33N 49°11' W 122°55'0 0.0
2015-Apr-14 01:33N 49°11' W 122°55'0 0.0
2015-Apr-14 00:33N 49°11' W 122°55'0 0.0
2015-Apr-13 23:33N 49°11' W 122°55'0 0.0
2015-Apr-13 22:33N 49°11' W 122°55'0 0.0
2015-Apr-13 21:32N 49°11' W 122°55'0 0.0
2015-Apr-13 20:32N 49°11' W 122°55'0 0.0
2015-Apr-13 19:32N 49°11' W 122°55'0 0.0
2015-Apr-13 18:32N 49°11' W 122°55'0 0.0
2015-Apr-13 17:32N 49°11' W 122°55'0 0.0
2015-Apr-13 16:32N 49°11' W 122°55'0 0.0
2015-Apr-13 15:32N 49°11' W 122°55'0 0.0
2015-Apr-13 14:32N 49°11' W 122°55'0 0.0
2015-Apr-13 13:32N 49°11' W 122°55'0 0.0
2015-Apr-13 12:32N 49°11' W 122°55'0 0.0
2015-Apr-13 11:33N 49°11' W 122°55'0 0.0
2015-Apr-13 10:32N 49°11' W 122°55'0 0.0
2015-Apr-13 09:32N 49°11' W 122°55'0 0.0
2015-Apr-13 08:32N 49°11' W 122°55'0 0.0
2015-Apr-13 07:32N 49°11' W 122°55'0 0.0
2015-Apr-13 06:32N 49°11' W 122°55'  
Track history (hours):
 
Tides and Currents Weather Stations Pressure Air Temp Water Temp Dewpoint Dewpoint Depression Visibility Wind Speed Wind Dir Waves Ship Positions

La Porsche

Last reported at 2015-Apr-23 06:06 UTC. Time now 2015-Apr-28 16:02 UTC.
Position N 51°30' W 127°51'.

Length 22 m; draft 3 m.

Type: Fishing. MMSI: 316001649.

Date/timePositionNaut miles runAvg speedWind from/ knotsBaromVisibWave heightAir tempDewpointWater temp
2015-Apr-23 06:06N 51°30' W 127°51'15 7.9
2015-Apr-23 04:16N 51°16' W 127°53'5 7.6
2015-Apr-23 03:33N 51°11' W 127°51'8 8.5
2015-Apr-23 02:33N 51°02' W 127°47'8 8.3
2015-Apr-23 01:33N 50°55' W 127°41'8 8.2
2015-Apr-23 00:33N 50°48' W 127°34'6 1.9
2015-Apr-22 21:22N 50°43' W 127°29'5 5.7
2015-Apr-22 20:30N 50°45' W 127°22'8 8.2
2015-Apr-22 19:31N 50°39' W 127°13'19 9.0
2015-Apr-22 17:25N 50°33' W 126°45'8 8.9
2015-Apr-22 16:32N 50°30' W 126°33'10 8.6
2015-Apr-22 15:24N 50°29' W 126°18'92 7.0
2015-Apr-22 02:17N 49°35' W 124°22'6 8.2
2015-Apr-22 01:31N 49°31' W 124°14'9 8.1
2015-Apr-22 00:23N 49°28' W 124°01'8 8.3
2015-Apr-21 23:28N 49°25' W 123°50'8 8.2
2015-Apr-21 22:33N 49°23' W 123°39'6 4.4
2015-Apr-21 21:17N 49°24' W 123°30'0 0.0
2015-Apr-21 19:17N 49°24' W 123°30'0 0.0
2015-Apr-21 18:29N 49°24' W 123°30'0 0.0
2015-Apr-21 17:29N 49°24' W 123°30'0 0.0
2015-Apr-21 16:29N 49°24' W 123°30'0 0.0
2015-Apr-21 15:05N 49°24' W 123°30'0 0.0
2015-Apr-21 14:29N 49°24' W 123°30'0 0.0
2015-Apr-21 13:29N 49°24' W 123°30'0 0.0
2015-Apr-21 12:32N 49°24' W 123°30'0 0.0
2015-Apr-21 11:32N 49°24' W 123°30'0 0.0
2015-Apr-21 10:32N 49°24' W 123°30'0 0.0
2015-Apr-21 09:32N 49°24' W 123°30'0 0.0
2015-Apr-21 08:32N 49°24' W 123°30'0 0.0
2015-Apr-21 07:32N 49°24' W 123°30'0 0.0
2015-Apr-21 06:29N 49°24' W 123°30'0 0.0
2015-Apr-21 05:29N 49°24' W 123°30'0 0.0
2015-Apr-21 04:32N 49°24' W 123°30'0 0.0
2015-Apr-21 03:29N 49°24' W 123°30'5 5.8
2015-Apr-21 02:33N 49°19' W 123°30'9 8.9
2015-Apr-21 01:33N 49°11' W 123°24'7 6.6
2015-Apr-21 00:33N 49°08' W 123°15'6 6.0
2015-Apr-20 23:33N 49°05' W 123°06'0 0.0
2015-Apr-20 22:33N 49°05' W 123°06'0 0.0
2015-Apr-20 21:33N 49°05' W 123°06'0 0.0
2015-Apr-20 20:33N 49°05' W 123°06'0 0.0
2015-Apr-20 19:33N 49°05' W 123°06'0 0.0
2015-Apr-20 18:30N 49°05' W 123°06'0 0.0
2015-Apr-20 17:33N 49°05' W 123°06'2 2.1
2015-Apr-20 16:34N 49°06' W 123°09'7 7.5
2015-Apr-20 15:33N 49°09' W 122°59'3 2.8
2015-Apr-20 14:31N 49°11' W 122°55'0 0.0
2015-Apr-20 13:31N 49°11' W 122°55'0 0.0
2015-Apr-20 12:31N 49°11' W 122°55'0 0.0
2015-Apr-20 11:31N 49°11' W 122°55'0 0.0
2015-Apr-20 10:31N 49°11' W 122°55'0 0.0
2015-Apr-20 09:31N 49°11' W 122°55'0 0.0
2015-Apr-20 08:31N 49°11' W 122°55'0 0.0
2015-Apr-20 07:31N 49°11' W 122°55'0 0.0
2015-Apr-20 06:31N 49°11' W 122°55'0 0.0
2015-Apr-20 05:31N 49°11' W 122°55'0 0.0
2015-Apr-20 04:31N 49°11' W 122°55'0 0.0
2015-Apr-20 03:31N 49°11' W 122°55'0 0.0
2015-Apr-20 02:31N 49°11' W 122°55'0 0.0
2015-Apr-20 01:31N 49°11' W 122°55'0 0.0
2015-Apr-20 00:31N 49°11' W 122°55'0 0.0
2015-Apr-19 23:31N 49°11' W 122°55'0 0.0
2015-Apr-19 22:31N 49°11' W 122°55'0 0.0
2015-Apr-19 21:31N 49°11' W 122°55'0 0.0
2015-Apr-19 20:31N 49°11' W 122°55'0 0.0
2015-Apr-19 19:31N 49°11' W 122°55'0 0.0
2015-Apr-19 18:31N 49°11' W 122°55'0 0.0
2015-Apr-19 17:31N 49°11' W 122°55'0 0.0
2015-Apr-19 16:31N 49°11' W 122°55'0 0.0
2015-Apr-19 15:31N 49°11' W 122°55'0 0.0
2015-Apr-19 14:31N 49°11' W 122°55'0 0.0
2015-Apr-19 13:31N 49°11' W 122°55'0 0.0
2015-Apr-19 12:31N 49°11' W 122°55'0 0.0
2015-Apr-19 11:31N 49°11' W 122°55'0 0.0
2015-Apr-19 10:31N 49°11' W 122°55'0 0.0
2015-Apr-19 09:31N 49°11' W 122°55'0 0.0
2015-Apr-19 08:31N 49°11' W 122°55'0 0.0
2015-Apr-19 07:31N 49°11' W 122°55'0 0.0
2015-Apr-19 06:31N 49°11' W 122°55'0 0.0
2015-Apr-19 05:31N 49°11' W 122°55'0 0.0
2015-Apr-19 04:28N 49°11' W 122°55'0 0.0
2015-Apr-19 03:31N 49°11' W 122°55'0 0.0
2015-Apr-19 02:31N 49°11' W 122°55'0 0.0
2015-Apr-19 01:32N 49°11' W 122°55'0 0.0
2015-Apr-19 00:31N 49°11' W 122°55'0 0.0
2015-Apr-18 23:31N 49°11' W 122°55'0 0.0
2015-Apr-18 22:31N 49°11' W 122°55'0 0.0
2015-Apr-18 21:31N 49°11' W 122°55'0 0.0
2015-Apr-18 20:31N 49°11' W 122°55'0 0.0
2015-Apr-18 19:31N 49°11' W 122°55'0 0.0
2015-Apr-18 18:31N 49°11' W 122°55'0 0.0
2015-Apr-18 17:31N 49°11' W 122°55'0 0.0
2015-Apr-18 16:31N 49°11' W 122°55'0 0.0
2015-Apr-18 15:31N 49°11' W 122°55'0 0.0
2015-Apr-18 14:31N 49°11' W 122°55'0 0.0
2015-Apr-18 13:31N 49°11' W 122°55'0 0.0
2015-Apr-18 12:31N 49°11' W 122°55'0 0.0
2015-Apr-18 11:31N 49°11' W 122°55'0 0.0
2015-Apr-18 10:31N 49°11' W 122°55'0 0.0
2015-Apr-18 09:31N 49°11' W 122°55'0 0.0
2015-Apr-18 08:31N 49°11' W 122°55'0 0.0
2015-Apr-18 07:31N 49°11' W 122°55'0 0.0
2015-Apr-18 06:31N 49°11' W 122°55'0 0.0
2015-Apr-18 05:31N 49°11' W 122°55'0 0.0
2015-Apr-18 04:31N 49°11' W 122°55'0 0.0
2015-Apr-18 03:31N 49°11' W 122°55'0 0.0
2015-Apr-18 02:31N 49°11' W 122°55'0 0.0
2015-Apr-18 01:31N 49°11' W 122°55'0 0.0
2015-Apr-18 00:31N 49°11' W 122°55'0 0.0
2015-Apr-17 23:31N 49°11' W 122°55'0 0.0
2015-Apr-17 22:31N 49°11' W 122°55'0 0.0
2015-Apr-17 21:31N 49°11' W 122°55'0 0.0
2015-Apr-17 20:31N 49°11' W 122°55'0 0.0
2015-Apr-17 19:31N 49°11' W 122°55'0 0.0
2015-Apr-17 18:33N 49°11' W 122°55'0 0.0
2015-Apr-17 17:28N 49°11' W 122°55'0 0.0
2015-Apr-17 16:31N 49°11' W 122°55'0 0.0
2015-Apr-16 18:06N 49°11' W 122°55'0 0.0
2015-Apr-16 17:33N 49°11' W 122°55'0 0.0
2015-Apr-16 16:33N 49°11' W 122°55'0 0.0
2015-Apr-16 15:33N 49°11' W 122°55'0 0.0
2015-Apr-16 14:33N 49°11' W 122°55'0 0.0
2015-Apr-16 13:33N 49°11' W 122°55'0 0.0
2015-Apr-16 12:33N 49°11' W 122°55'0 0.0
2015-Apr-16 11:33N 49°11' W 122°55'0 0.0
2015-Apr-16 10:33N 49°11' W 122°55'0 0.0
2015-Apr-16 09:33N 49°11' W 122°55'0 0.0
2015-Apr-16 08:33N 49°11' W 122°55'0 0.0
2015-Apr-16 07:30N 49°11' W 122°55'0 0.0
2015-Apr-16 06:33N 49°11' W 122°55'0 0.0
2015-Apr-16 05:33N 49°11' W 122°55'0 0.0
2015-Apr-16 04:33N 49°11' W 122°55'0 0.0
2015-Apr-16 03:33N 49°11' W 122°55'0 0.0
2015-Apr-16 02:33N 49°11' W 122°55'0 0.0
2015-Apr-16 01:33N 49°11' W 122°55'0 0.0
2015-Apr-16 00:33N 49°11' W 122°55'0 0.0
2015-Apr-15 23:33N 49°11' W 122°55'0 0.0
2015-Apr-15 22:33N 49°11' W 122°55'0 0.0
2015-Apr-15 21:33N 49°11' W 122°55'0 0.0
2015-Apr-15 20:33N 49°11' W 122°55'0 0.0
2015-Apr-15 19:33N 49°11' W 122°55'0 0.0
2015-Apr-15 18:30N 49°11' W 122°55'0 0.0
2015-Apr-15 17:33N 49°11' W 122°55'0 0.0
2015-Apr-15 16:33N 49°11' W 122°55'0 0.0
2015-Apr-15 15:33N 49°11' W 122°55'0 0.0
2015-Apr-15 14:33N 49°11' W 122°55'0 0.0
2015-Apr-15 13:33N 49°11' W 122°55'0 0.0
2015-Apr-15 12:33N 49°11' W 122°55'0 0.0
2015-Apr-15 11:33N 49°11' W 122°55'0 0.0
2015-Apr-15 10:33N 49°11' W 122°55'0 0.0
2015-Apr-15 09:33N 49°11' W 122°55'0 0.0
2015-Apr-15 08:33N 49°11' W 122°55'0 0.0
2015-Apr-15 07:33N 49°11' W 122°55'0 0.0
2015-Apr-15 06:33N 49°11' W 122°55'0 0.0
2015-Apr-15 05:33N 49°11' W 122°55'0 0.0
2015-Apr-15 04:33N 49°11' W 122°55'0 0.0
2015-Apr-15 03:33N 49°11' W 122°55'0 0.0
2015-Apr-15 02:27N 49°11' W 122°55'0 0.0
2015-Apr-15 01:33N 49°11' W 122°55'0 0.0
2015-Apr-15 00:30N 49°11' W 122°55'0 0.0
2015-Apr-14 23:33N 49°11' W 122°55'0 0.0
2015-Apr-14 22:33N 49°11' W 122°55'0 0.0
2015-Apr-14 21:33N 49°11' W 122°55'0 0.0
2015-Apr-14 20:33N 49°11' W 122°55'0 0.0
2015-Apr-14 19:33N 49°11' W 122°55'0 0.0
2015-Apr-14 18:33N 49°11' W 122°55'0 0.0
2015-Apr-14 17:33N 49°11' W 122°55'0 0.0
2015-Apr-14 16:33N 49°11' W 122°55'0 0.0
2015-Apr-14 15:33N 49°11' W 122°55'0 0.0
2015-Apr-14 14:33N 49°11' W 122°55'0 0.0
2015-Apr-14 13:33N 49°11' W 122°55'0 0.0
2015-Apr-14 12:33N 49°11' W 122°55'0 0.0
2015-Apr-14 11:33N 49°11' W 122°55'0 0.0
2015-Apr-14 10:33N 49°11' W 122°55'0 0.0
2015-Apr-14 09:33N 49°11' W 122°55'0 0.0
2015-Apr-14 08:33N 49°11' W 122°55'0 0.0
2015-Apr-14 07:33N 49°11' W 122°55'0 0.0
2015-Apr-14 06:33N 49°11' W 122°55'0 0.0
2015-Apr-14 05:33N 49°11' W 122°55'0 0.0
2015-Apr-14 04:33N 49°11' W 122°55'0 0.0
2015-Apr-14 03:30N 49°11' W 122°55'0 0.0
2015-Apr-14 02:33N 49°11' W 122°55'0 0.0
2015-Apr-14 01:33N 49°11' W 122°55'0 0.0
2015-Apr-14 00:33N 49°11' W 122°55'0 0.0
2015-Apr-13 23:33N 49°11' W 122°55'0 0.0
2015-Apr-13 22:33N 49°11' W 122°55'0 0.0
2015-Apr-13 21:32N 49°11' W 122°55'0 0.0
2015-Apr-13 20:32N 49°11' W 122°55'0 0.0
2015-Apr-13 19:32N 49°11' W 122°55'0 0.0
2015-Apr-13 18:32N 49°11' W 122°55'0 0.0
2015-Apr-13 17:32N 49°11' W 122°55'0 0.0
2015-Apr-13 16:32N 49°11' W 122°55'0 0.0
2015-Apr-13 15:32N 49°11' W 122°55'0 0.0
2015-Apr-13 14:32N 49°11' W 122°55'0 0.0
2015-Apr-13 13:32N 49°11' W 122°55'0 0.0
2015-Apr-13 12:32N 49°11' W 122°55'0 0.0
2015-Apr-13 11:33N 49°11' W 122°55'0 0.0
2015-Apr-13 10:32N 49°11' W 122°55'0 0.0
2015-Apr-13 09:32N 49°11' W 122°55'0 0.0
2015-Apr-13 08:32N 49°11' W 122°55'0 0.0
2015-Apr-13 07:32N 49°11' W 122°55'0 0.0
2015-Apr-13 06:32N 49°11' W 122°55'  

Dump ship's entire track history